Time;durP1;ratioP1;P1;durP2;ratioP2;P2;SDS_P1;SDS_P2;PMS_P1;PMS_P2;Temp;Humidity;BMP_temperature;BMP_pressure;BME280_temperature;BME280_humidity;BME280_pressure;Samples;Min_cycle;Max_cycle;Signal;HPM_P1;HPM_P2
2023/05/29 00:01:02;;;;;;;9.93;2.85;;;10.80;99.90;;;;;;5093301;28;20058;-63
2023/05/29 00:03:32;;;;;;;10.43;2.70;;;10.80;99.90;;;;;;5093553;28;20130;-63
2023/05/29 00:06:00;;;;;;;11.77;2.85;;;10.70;99.90;;;;;;5093689;28;20047;-63
2023/05/29 00:08:27;;;;;;;10.40;2.60;;;10.70;99.90;;;;;;5092715;28;20101;-62
2023/05/29 00:10:53;;;;;;;14.65;2.90;;;10.70;99.90;;;;;;5093248;28;20129;-63
2023/05/29 00:13:20;;;;;;;9.30;2.80;;;10.70;99.90;;;;;;5092254;28;20105;-63
2023/05/29 00:15:47;;;;;;;13.75;2.92;;;10.60;99.90;;;;;;5092918;28;20113;-63
2023/05/29 00:18:13;;;;;;;13.30;2.47;;;10.50;99.90;;;;;;5092851;28;20048;-62
2023/05/29 00:20:40;;;;;;;12.10;3.17;;;10.50;99.90;;;;;;5091954;28;20036;-62
2023/05/29 00:23:07;;;;;;;12.18;2.40;;;10.50;99.90;;;;;;5092827;28;20063;-63
2023/05/29 00:25:33;;;;;;;11.77;2.53;;;10.40;99.90;;;;;;5092689;28;20052;-62
2023/05/29 00:28:00;;;;;;;13.60;2.78;;;10.40;99.90;;;;;;5092826;28;20052;-63
2023/05/29 00:30:26;;;;;;;9.40;2.72;;;10.40;99.90;;;;;;5091661;28;20442;-63
2023/05/29 00:32:53;;;;;;;9.73;2.33;;;10.40;99.90;;;;;;5092489;28;20063;-62
2023/05/29 00:35:20;;;;;;;11.50;3.20;;;10.40;99.90;;;;;;5092350;28;20362;-63
2023/05/29 00:37:46;;;;;;;10.07;2.15;;;10.30;99.90;;;;;;5092423;28;20052;-62
2023/05/29 00:40:13;;;;;;;10.10;2.65;;;10.30;99.90;;;;;;5091518;28;20422;-63
2023/05/29 00:42:39;;;;;;;15.20;3.05;;;10.30;99.90;;;;;;5092388;28;20138;-63
2023/05/29 00:45:06;;;;;;;9.98;2.70;;;10.30;99.90;;;;;;5091399;28;20075;-62
2023/05/29 00:47:33;;;;;;;13.20;2.55;;;10.20;99.90;;;;;;5092742;28;20052;-62
2023/05/29 00:50:01;;;;;;;12.82;2.50;;;10.20;99.90;;;;;;5091695;28;20067;-64
2023/05/29 00:52:28;;;;;;;10.25;2.83;;;10.20;99.90;;;;;;5092272;28;20103;-62
2023/05/29 00:54:55;;;;;;;12.90;3.38;;;10.10;99.90;;;;;;5092323;28;20055;-63
2023/05/29 00:57:22;;;;;;;15.85;2.67;;;10.20;99.90;;;;;;5092199;28;20052;-62
2023/05/29 00:59:50;;;;;;;12.00;2.63;;;10.20;99.90;;;;;;5091782;28;20055;-64
2023/05/29 01:02:18;;;;;;;10.73;2.50;;;10.10;99.90;;;;;;5092246;28;20040;-62
2023/05/29 01:04:45;;;;;;;10.15;2.55;;;10.10;99.90;;;;;;5092259;28;20056;-63
2023/05/29 01:07:12;;;;;;;10.48;2.65;;;10.00;99.90;;;;;;5092027;28;20051;-62
2023/05/29 01:09:38;;;;;;;6.45;2.47;;;10.00;99.90;;;;;;5091450;28;20082;-62
2023/05/29 01:12:31;;;;;;;12.07;2.97;;;10.00;99.90;;;;;;5092136;28;20117;-62
2023/05/29 01:15:16;;;;;;;12.27;2.80;;;10.00;99.90;;;;;;5092121;28;20120;-62
2023/05/29 01:18:02;;;;;;;10.27;2.72;;;9.90;99.90;;;;;;5092034;28;20059;-62
2023/05/29 01:20:43;;;;;;;8.07;2.20;;;9.90;99.90;;;;;;5091328;28;20048;-63
2023/05/29 01:23:34;;;;;;;11.32;2.83;;;9.90;99.90;;;;;;5092093;28;20325;-62
2023/05/29 01:26:03;;;;;;;12.77;2.90;;;9.90;99.90;;;;;;5096208;28;20056;-63
2023/05/29 01:28:41;;;;;;;9.52;2.50;;;9.80;99.90;;;;;;5095253;28;20205;-63
2023/05/29 01:31:07;;;;;;;13.98;2.38;;;9.80;99.90;;;;;;5075863;28;20075;-63
2023/05/29 01:33:34;;;;;;;8.48;2.50;;;9.80;99.90;;;;;;5075766;28;20052;-62
2023/05/29 01:36:00;;;;;;;9.77;2.65;;;9.70;99.90;;;;;;5076156;28;20055;-63
2023/05/29 01:38:26;;;;;;;9.00;2.38;;;9.70;99.90;;;;;;5075247;28;20361;-63
2023/05/29 01:40:53;;;;;;;11.23;3.05;;;9.70;99.90;;;;;;5095414;28;20105;-62
2023/05/29 01:43:19;;;;;;;9.65;2.42;;;9.70;99.90;;;;;;5096104;28;20326;-62
2023/05/29 01:45:45;;;;;;;12.25;3.30;;;9.70;99.90;;;;;;5096292;28;20051;-61
2023/05/29 01:48:12;;;;;;;10.45;2.30;;;9.70;99.90;;;;;;5095619;28;20065;-63
2023/05/29 01:50:39;;;;;;;10.70;2.80;;;9.60;99.90;;;;;;5095637;28;20052;-61
2023/05/29 01:53:06;;;;;;;13.48;2.80;;;9.60;99.90;;;;;;5095503;28;20468;-62
2023/05/29 01:55:32;;;;;;;10.50;2.45;;;9.50;99.90;;;;;;5095807;28;20055;-61
2023/05/29 01:57:58;;;;;;;9.25;2.70;;;9.60;99.90;;;;;;5095429;28;20448;-61
2023/05/29 02:00:25;;;;;;;7.43;2.90;;;9.50;99.90;;;;;;5094961;28;20086;-63
2023/05/29 02:02:51;;;;;;;7.70;2.30;;;9.50;99.90;;;;;;5095426;28;20044;-63
2023/05/29 02:05:17;;;;;;;14.85;3.35;;;9.50;99.90;;;;;;5094387;28;20421;-62
2023/05/29 02:07:44;;;;;;;8.73;2.58;;;9.50;99.90;;;;;;5095309;28;20048;-62
2023/05/29 02:10:10;;;;;;;9.52;2.70;;;9.50;99.90;;;;;;5094684;28;20071;-62
2023/05/29 02:12:37;;;;;;;10.00;2.70;;;9.40;99.90;;;;;;5095397;28;20120;-63
2023/05/29 02:15:03;;;;;;;12.13;2.25;;;9.40;99.90;;;;;;5095405;28;20040;-63
2023/05/29 02:17:30;;;;;;;11.65;3.03;;;9.40;99.90;;;;;;5095421;28;20089;-62
2023/05/29 02:19:57;;;;;;;11.90;2.80;;;9.40;99.90;;;;;;5093269;28;20052;-61
2023/05/29 02:22:23;;;;;;;9.43;2.95;;;9.30;99.90;;;;;;5095350;28;20414;-62
2023/05/29 02:24:49;;;;;;;11.15;2.80;;;9.30;99.90;;;;;;5095053;28;20452;-63
2023/05/29 02:27:15;;;;;;;15.00;2.60;;;9.30;99.90;;;;;;5094958;28;20472;-63
2023/05/29 02:29:42;;;;;;;13.25;2.50;;;9.30;99.90;;;;;;5094328;28;20048;-62
2023/05/29 02:32:08;;;;;;;9.20;2.63;;;9.30;99.90;;;;;;5094963;28;20075;-63
2023/05/29 02:34:34;;;;;;;10.68;2.60;;;9.30;99.90;;;;;;5094329;28;20117;-62
2023/05/29 02:37:00;;;;;;;10.82;2.58;;;9.30;99.90;;;;;;5094866;28;20051;-63
2023/05/29 02:39:26;;;;;;;10.73;2.70;;;9.20;99.90;;;;;;5094224;28;20354;-63
2023/05/29 02:41:53;;;;;;;13.45;3.42;;;9.30;99.90;;;;;;5094731;28;20445;-63
2023/05/29 02:44:20;;;;;;;8.65;3.05;;;9.30;99.90;;;;;;5094713;28;20044;-63
2023/05/29 02:46:46;;;;;;;9.60;2.67;;;9.30;99.90;;;;;;5094636;28;20113;-62
2023/05/29 02:49:12;;;;;;;9.73;2.53;;;9.20;99.90;;;;;;5093662;28;20055;-63
2023/05/29 02:51:38;;;;;;;10.38;2.92;;;9.30;99.90;;;;;;5094448;28;20052;-63
2023/05/29 02:54:05;;;;;;;15.13;2.60;;;9.30;99.90;;;;;;5094446;28;20080;-60
2023/05/29 02:56:31;;;;;;;9.65;2.30;;;9.20;99.90;;;;;;5094260;28;20600;-61
2023/05/29 02:58:57;;;;;;;8.20;2.25;;;9.20;99.90;;;;;;5093827;28;20120;-62
2023/05/29 03:01:23;;;;;;;11.93;2.90;;;9.20;99.90;;;;;;5094112;28;20617;-62
2023/05/29 03:03:50;;;;;;;12.25;2.95;;;9.10;99.90;;;;;;5094391;28;20044;-63
2023/05/29 03:06:17;;;;;;;9.40;2.65;;;9.00;99.90;;;;;;5094187;28;20136;-62
2023/05/29 03:08:44;;;;;;;11.95;2.60;;;9.10;99.90;;;;;;5093451;28;20056;-63
2023/05/29 03:11:12;;;;;;;13.15;2.70;;;9.00;99.90;;;;;;5094302;28;20067;-63
2023/05/29 03:13:38;;;;;;;14.57;3.00;;;9.00;99.90;;;;;;5094003;28;20364;-62
2023/05/29 03:16:05;;;;;;;10.52;2.58;;;9.00;99.90;;;;;;5094134;28;20349;-62
2023/05/29 03:18:31;;;;;;;14.57;2.80;;;9.00;99.90;;;;;;5093569;28;20105;-62
2023/05/29 03:20:58;;;;;;;8.68;2.50;;;9.00;99.90;;;;;;5093803;28;20055;-63
2023/05/29 03:23:24;;;;;;;8.55;2.30;;;9.00;99.90;;;;;;5094033;28;20446;-61
2023/05/29 03:25:50;;;;;;;9.77;2.30;;;8.90;99.90;;;;;;5093932;28;20044;-64
2023/05/29 03:28:16;;;;;;;9.30;2.65;;;8.90;99.90;;;;;;5093186;28;20044;-62
2023/05/29 03:30:43;;;;;;;11.40;2.67;;;8.90;99.90;;;;;;5093626;28;20052;-62
2023/05/29 03:33:09;;;;;;;11.77;2.60;;;8.90;99.90;;;;;;5093718;28;20440;-61
2023/05/29 03:35:35;;;;;;;12.50;2.40;;;8.90;99.90;;;;;;5093245;28;20479;-61
2023/05/29 03:38:01;;;;;;;9.25;2.80;;;8.90;99.90;;;;;;5092374;28;20059;-62
2023/05/29 03:40:28;;;;;;;11.25;2.47;;;8.90;99.90;;;;;;5093687;28;20059;-62
2023/05/29 03:42:54;;;;;;;8.77;2.22;;;8.90;99.90;;;;;;5093600;28;20063;-61
2023/05/29 03:45:20;;;;;;;8.05;2.28;;;8.90;99.90;;;;;;5092608;28;20070;-61
2023/05/29 03:47:46;;;;;;;10.10;2.47;;;8.90;99.90;;;;;;5092620;28;20044;-61
2023/05/29 03:50:15;;;;;;;14.15;2.80;;;8.90;99.90;;;;;;5092381;28;20443;-62
2023/05/29 03:52:42;;;;;;;13.10;2.50;;;8.90;99.90;;;;;;5093385;28;20052;-62
2023/05/29 03:55:12;;;;;;;13.65;2.42;;;8.90;99.90;;;;;;5093228;28;20515;-62
2023/05/29 03:57:42;;;;;;;9.18;2.30;;;8.90;99.90;;;;;;5093286;28;20054;-62
2023/05/29 04:00:10;;;;;;;12.85;2.63;;;8.90;99.90;;;;;;5092586;28;20117;-61
2023/05/29 04:02:37;;;;;;;7.50;2.47;;;9.00;99.90;;;;;;5093310;28;20044;-62
2023/05/29 04:05:06;;;;;;;11.38;2.53;;;9.00;99.90;;;;;;5092989;28;20658;-62
2023/05/29 04:07:33;;;;;;;7.85;2.75;;;9.00;99.90;;;;;;5093076;28;20052;-63
2023/05/29 04:09:59;;;;;;;11.93;2.67;;;9.00;99.90;;;;;;5092568;28;20129;-62
2023/05/29 04:12:25;;;;;;;13.32;2.70;;;9.10;99.90;;;;;;5093083;28;20051;-63
2023/05/29 04:14:52;;;;;;;9.48;2.53;;;9.10;99.90;;;;;;5092784;28;20044;-63
2023/05/29 04:17:18;;;;;;;9.05;2.60;;;9.00;99.90;;;;;;5092966;28;20036;-63
2023/05/29 04:19:44;;;;;;;12.75;2.65;;;9.10;99.90;;;;;;5092258;28;20044;-62
2023/05/29 04:22:10;;;;;;;11.43;3.13;;;9.20;99.90;;;;;;5092885;28;20105;-62
2023/05/29 04:24:37;;;;;;;10.32;2.33;;;9.20;99.90;;;;;;5092736;28;20089;-62
2023/05/29 04:27:04;;;;;;;10.35;2.95;;;9.20;99.90;;;;;;5092865;28;20048;-62
2023/05/29 04:29:30;;;;;;;10.90;2.97;;;9.30;99.90;;;;;;5092083;28;20380;-62
2023/05/29 04:31:57;;;;;;;13.05;2.47;;;9.40;99.90;;;;;;5093251;28;20048;-63
2023/05/29 04:34:24;;;;;;;9.52;2.53;;;9.50;99.90;;;;;;5092951;28;20067;-61
2023/05/29 04:36:51;;;;;;;8.18;2.78;;;9.50;99.90;;;;;;5092436;28;20496;-62
2023/05/29 04:39:17;;;;;;;8.93;2.90;;;9.60;99.90;;;;;;5091993;28;20128;-62
2023/05/29 04:41:44;;;;;;;12.02;2.78;;;9.60;99.90;;;;;;5092583;28;20055;-63
2023/05/29 04:44:11;;;;;;;9.77;2.80;;;9.60;99.90;;;;;;5092429;28;20048;-62
2023/05/29 04:46:38;;;;;;;10.25;2.35;;;9.60;99.90;;;;;;5092522;28;20311;-61
2023/05/29 04:49:04;;;;;;;10.82;2.40;;;9.80;99.90;;;;;;5091675;28;20040;-63
2023/05/29 04:51:31;;;;;;;11.57;2.78;;;9.80;99.90;;;;;;5092453;28;20384;-62
2023/05/29 04:53:57;;;;;;;12.05;2.78;;;10.00;99.90;;;;;;5092098;28;20456;-62
2023/05/29 04:56:23;;;;;;;12.23;2.67;;;10.30;99.90;;;;;;5092229;28;20391;-62
2023/05/29 04:58:50;;;;;;;10.20;2.80;;;10.70;99.90;;;;;;5091194;28;20464;-61
2023/05/29 05:01:17;;;;;;;7.97;2.47;;;11.20;99.90;;;;;;5091937;28;20438;-61
2023/05/29 05:03:44;;;;;;;11.07;2.45;;;11.50;99.90;;;;;;5092212;28;20134;-62
2023/05/29 05:06:10;;;;;;;14.10;3.05;;;12.00;99.90;;;;;;5091932;28;20384;-61
2023/05/29 05:08:37;;;;;;;8.68;2.97;;;12.40;99.90;;;;;;5091840;28;20438;-62
2023/05/29 05:11:03;;;;;;;10.40;3.17;;;12.90;99.90;;;;;;5091624;28;20380;-62
2023/05/29 05:13:30;;;;;;;12.93;3.13;;;13.20;99.90;;;;;;5092263;28;20048;-62
2023/05/29 05:15:56;;;;;;;9.23;2.42;;;13.40;99.90;;;;;;5092169;28;20048;-62
2023/05/29 05:18:22;;;;;;;8.13;2.60;;;13.60;99.90;;;;;;5091604;28;20050;-63
2023/05/29 05:20:48;;;;;;;9.98;2.80;;;13.80;99.90;;;;;;5091249;28;20053;-63
2023/05/29 05:23:15;;;;;;;9.05;3.05;;;13.90;99.90;;;;;;5091945;28;20118;-62
2023/05/29 05:25:41;;;;;;;13.00;2.88;;;14.00;99.90;;;;;;5092010;28;20055;-62
2023/05/29 05:28:09;;;;;;;10.27;2.75;;;14.20;99.90;;;;;;5091349;28;20418;-61
2023/05/29 05:30:35;;;;;;;12.77;2.85;;;14.30;99.90;;;;;;5091639;28;20047;-62
2023/05/29 05:33:02;;;;;;;10.55;2.60;;;14.30;99.90;;;;;;5091805;28;20426;-62
2023/05/29 05:35:28;;;;;;;7.65;2.65;;;14.50;99.90;;;;;;5091795;28;20051;-61
2023/05/29 05:37:57;;;;;;;10.80;2.65;;;14.70;99.90;;;;;;5091380;28;20083;-61
2023/05/29 05:40:25;;;;;;;8.57;2.55;;;15.00;99.90;;;;;;5091763;28;20065;-62
2023/05/29 05:42:52;;;;;;;15.93;3.22;;;15.10;99.90;;;;;;5091966;28;20257;-61
2023/05/29 05:45:18;;;;;;;13.02;3.15;;;15.40;99.90;;;;;;5091721;28;20062;-63
2023/05/29 05:47:45;;;;;;;8.38;2.78;;;15.50;99.90;;;;;;5091678;28;20059;-63
2023/05/29 05:50:13;;;;;;;11.13;2.78;;;15.70;99.90;;;;;;5091234;28;20063;-63
2023/05/29 05:52:39;;;;;;;10.93;3.20;;;15.90;99.90;;;;;;5091720;28;20044;-62
2023/05/29 05:55:06;;;;;;;10.40;2.50;;;16.20;99.90;;;;;;5091462;28;20043;-62
2023/05/29 05:57:32;;;;;;;12.15;3.03;;;16.20;99.90;;;;;;5091454;28;20052;-63
2023/05/29 06:00:12;;;;;;;9.63;2.60;;;16.50;99.90;;;;;;5091106;28;20044;-63
2023/05/29 06:02:44;;;;;;;9.07;3.00;;;16.90;99.90;;;;;;5091722;28;20048;-62
2023/05/29 06:05:11;;;;;;;6.85;2.20;;;17.40;99.90;;;;;;5091446;28;20140;-62
2023/05/29 06:07:38;;;;;;;9.52;2.60;;;17.50;99.90;;;;;;5091435;28;20055;-61
2023/05/29 06:10:04;;;;;;;9.25;2.63;;;17.70;99.90;;;;;;5091451;28;20059;-63
2023/05/29 06:12:31;;;;;;;8.27;2.58;;;17.90;99.90;;;;;;5095525;28;20090;-62
2023/05/29 06:14:57;;;;;;;8.60;2.38;;;17.80;99.90;;;;;;5095017;28;20040;-61
2023/05/29 06:17:23;;;;;;;11.55;2.45;;;17.70;99.90;;;;;;5086308;28;20163;-62
2023/05/29 06:19:50;;;;;;;12.18;2.58;;;17.90;99.90;;;;;;5082585;28;20356;-62
2023/05/29 06:22:16;;;;;;;11.15;2.85;;;17.80;99.90;;;;;;5084797;28;20036;-61
2023/05/29 06:24:43;;;;;;;7.55;2.20;;;17.90;99.40;;;;;;5085513;28;20059;-62
2023/05/29 06:27:10;;;;;;;9.88;3.75;;;18.00;99.40;;;;;;5083746;28;20162;-61
2023/05/29 06:29:36;;;;;;;8.23;2.33;;;17.80;98.80;;;;;;5082471;28;20053;-62
2023/05/29 06:32:02;;;;;;;7.82;2.63;;;17.80;99.20;;;;;;5083442;28;20483;-63
2023/05/29 06:34:29;;;;;;;8.07;2.50;;;17.80;98.70;;;;;;5082659;28;20040;-63
2023/05/29 06:36:55;;;;;;;11.40;3.30;;;17.90;98.60;;;;;;5084076;28;20479;-61
2023/05/29 06:39:23;;;;;;;9.25;2.75;;;17.80;98.40;;;;;;5085432;28;20052;-62
2023/05/29 06:41:50;;;;;;;9.02;2.33;;;17.90;98.70;;;;;;5090831;28;20051;-61
2023/05/29 06:44:16;;;;;;;10.77;2.67;;;17.90;98.50;;;;;;5094829;28;20044;-61
2023/05/29 06:46:42;;;;;;;8.60;2.58;;;17.70;98.30;;;;;;5093488;28;20044;-62
2023/05/29 06:49:08;;;;;;;7.50;2.50;;;17.30;98.50;;;;;;5094034;28;20380;-61
2023/05/29 06:51:35;;;;;;;10.38;2.78;;;16.40;99.20;;;;;;5094741;28;20052;-62
2023/05/29 06:54:01;;;;;;;10.60;2.67;;;16.50;99.80;;;;;;5094766;28;20109;-61
2023/05/29 06:56:28;;;;;;;9.43;2.50;;;16.40;99.90;;;;;;5094499;28;20048;-60
2023/05/29 06:58:54;;;;;;;11.80;2.83;;;15.80;99.90;;;;;;5093940;28;20101;-62
2023/05/29 07:01:20;;;;;;;10.35;2.72;;;15.50;99.90;;;;;;5094485;28;20044;-60
2023/05/29 07:03:51;;;;;;;9.75;2.33;;;15.70;99.90;;;;;;5094460;28;20044;-62
2023/05/29 07:06:17;;;;;;;10.93;3.08;;;15.80;99.90;;;;;;5093973;28;20357;-62
2023/05/29 07:08:43;;;;;;;7.75;2.50;;;15.90;99.90;;;;;;5093829;28;20044;-63
2023/05/29 07:11:10;;;;;;;7.65;2.30;;;16.10;99.90;;;;;;5094381;28;20036;-60
2023/05/29 07:13:36;;;;;;;7.78;2.90;;;16.10;99.90;;;;;;5094090;28;20052;-61
2023/05/29 07:16:02;;;;;;;8.10;2.70;;;16.00;99.90;;;;;;5094302;28;20055;-63
2023/05/29 07:18:28;;;;;;;11.93;3.20;;;16.10;99.90;;;;;;5093512;28;20446;-64
2023/05/29 07:20:56;;;;;;;11.05;3.03;;;15.70;99.90;;;;;;5093479;28;20460;-62
2023/05/29 07:23:24;;;;;;;12.85;3.08;;;15.60;99.90;;;;;;5093096;28;20073;-63
2023/05/29 07:25:50;;;;;;;14.70;3.00;;;15.70;99.90;;;;;;5094018;28;20052;-62
2023/05/29 07:28:16;;;;;;;10.98;2.60;;;15.70;99.90;;;;;;5093001;28;20378;-61
2023/05/29 07:30:43;;;;;;;12.05;3.10;;;15.80;99.90;;;;;;5093735;28;20044;-61
2023/05/29 07:33:09;;;;;;;11.90;3.17;;;16.00;99.90;;;;;;5093823;28;20142;-62
2023/05/29 07:35:35;;;;;;;9.52;3.05;;;16.10;99.90;;;;;;5092251;28;20052;-63
2023/05/29 07:38:02;;;;;;;9.63;2.42;;;15.80;99.90;;;;;;5081187;28;20170;-64
2023/05/29 07:40:28;;;;;;;11.38;2.90;;;16.00;99.90;;;;;;5084440;28;20040;-64
2023/05/29 07:42:54;;;;;;;10.73;2.90;;;16.00;99.90;;;;;;5082329;28;20096;-63
2023/05/29 07:45:21;;;;;;;10.25;2.50;;;16.00;99.90;;;;;;5080069;28;20040;-63
2023/05/29 07:47:47;;;;;;;9.98;2.67;;;15.90;99.60;;;;;;5082247;28;20040;-63
2023/05/29 07:50:14;;;;;;;9.32;2.97;;;15.80;99.70;;;;;;5084980;28;20056;-62
2023/05/29 07:52:42;;;;;;;10.13;2.75;;;15.70;99.80;;;;;;5093439;28;20046;-63
2023/05/29 07:55:09;;;;;;;7.30;2.72;;;15.80;99.70;;;;;;5092969;28;20330;-63
2023/05/29 07:57:36;;;;;;;11.40;2.95;;;15.80;99.80;;;;;;5092779;28;20353;-65
2023/05/29 08:00:08;;;;;;;13.48;3.22;;;15.70;99.90;;;;;;5090886;28;20055;-63
2023/05/29 08:02:36;;;;;;;11.02;2.58;;;15.70;99.90;;;;;;5093246;28;20044;-63
2023/05/29 08:05:03;;;;;;;12.98;3.63;;;15.80;99.90;;;;;;5089629;28;20063;-63
2023/05/29 08:07:30;;;;;;;12.60;3.95;;;16.00;99.90;;;;;;5079990;28;20057;-64
2023/05/29 08:09:59;;;;;;;10.60;3.15;;;15.90;99.90;;;;;;5081797;28;20380;-63
2023/05/29 08:12:25;;;;;;;13.68;3.70;;;15.90;99.90;;;;;;5093153;28;20044;-64
2023/05/29 08:14:51;;;;;;;10.23;3.35;;;16.20;99.90;;;;;;5093097;28;20055;-64
2023/05/29 08:17:17;;;;;;;12.15;3.40;;;16.30;99.90;;;;;;5093080;28;20104;-63
2023/05/29 08:19:44;;;;;;;8.50;2.78;;;16.60;99.80;;;;;;5092141;28;20044;-63
2023/05/29 08:22:13;;;;;;;11.10;3.38;;;16.80;99.90;;;;;;5093001;28;20044;-64
2023/05/29 08:24:40;;;;;;;11.48;3.95;;;16.80;99.50;;;;;;5092935;28;20177;-64
2023/05/29 08:27:06;;;;;;;7.95;2.90;;;16.70;99.30;;;;;;5092931;28;20052;-64
2023/05/29 08:29:32;;;;;;;11.10;3.70;;;16.50;99.70;;;;;;5082162;28;20060;-63
2023/05/29 08:31:58;;;;;;;9.38;3.28;;;16.60;99.50;;;;;;5092902;28;20059;-62
2023/05/29 08:34:25;;;;;;;11.95;3.85;;;16.60;99.50;;;;;;5092096;28;20052;-63
2023/05/29 08:36:51;;;;;;;12.45;3.67;;;16.40;99.50;;;;;;5092672;28;20078;-62
2023/05/29 08:39:17;;;;;;;14.15;3.65;;;16.30;99.50;;;;;;5092073;28;20058;-64
2023/05/29 08:41:56;;;;;;;10.55;2.95;;;16.20;99.50;;;;;;5092634;28;20055;-63
2023/05/29 08:44:22;;;;;;;16.10;3.53;;;16.30;99.70;;;;;;5092737;28;20457;-63
2023/05/29 08:46:55;;;;;;;12.73;3.72;;;16.40;99.90;;;;;;5092681;28;20056;-64
2023/05/29 08:49:22;;;;;;;11.80;3.45;;;16.60;99.70;;;;;;5091942;28;20040;-63
2023/05/29 08:52:01;;;;;;;9.95;3.95;;;16.50;99.40;;;;;;5092236;28;20387;-64
2023/05/29 08:54:32;;;;;;;14.38;3.45;;;16.40;99.40;;;;;;5092110;28;20452;-63
2023/05/29 08:56:59;;;;;;;12.32;4.05;;;16.80;99.70;;;;;;5092416;28;20048;-64
2023/05/29 08:59:26;;;;;;;9.82;3.05;;;16.90;99.50;;;;;;5091993;28;20415;-64
2023/05/29 09:01:53;;;;;;;12.50;3.10;;;17.00;99.00;;;;;;5092429;28;20052;-63
2023/05/29 09:04:19;;;;;;;13.20;3.60;;;16.90;99.00;;;;;;5092078;28;20445;-64
2023/05/29 09:06:48;;;;;;;11.63;3.90;;;16.70;98.80;;;;;;5092343;28;20101;-64
2023/05/29 09:09:15;;;;;;;7.30;2.72;;;16.60;99.00;;;;;;5091570;28;20441;-65
2023/05/29 09:11:43;;;;;;;11.10;3.22;;;17.00;99.10;;;;;;5091412;28;20071;-64
2023/05/29 09:14:33;;;;;;;11.75;3.55;;;17.20;98.80;;;;;;5092097;28;20044;-63
2023/05/29 09:17:00;;;;;;;10.10;3.20;;;17.20;98.40;;;;;;5092853;28;20044;-66
2023/05/29 09:19:27;;;;;;;10.52;3.80;;;17.10;98.70;;;;;;5091449;28;20402;-64
2023/05/29 09:22:05;;;;;;;13.45;3.60;;;17.10;98.80;;;;;;5092092;28;20048;-65
2023/05/29 09:24:37;;;;;;;17.63;5.40;;;17.30;98.50;;;;;;5092197;28;20054;-65
2023/05/29 09:27:04;;;;;;;12.95;3.38;;;17.10;98.70;;;;;;5091960;28;20051;-65
2023/05/29 09:29:37;;;;;;;9.07;2.75;;;17.10;98.70;;;;;;5091015;28;20052;-64
2023/05/29 09:32:11;;;;;;;12.07;3.40;;;17.10;98.40;;;;;;5091998;28;20044;-66
2023/05/29 09:34:37;;;;;;;12.73;3.40;;;17.00;98.50;;;;;;5091453;28;20422;-66
2023/05/29 09:37:08;;;;;;;11.32;3.08;;;17.00;98.50;;;;;;5091918;28;20048;-64
2023/05/29 09:39:46;;;;;;;11.07;3.50;;;17.10;98.70;;;;;;5091506;28;20073;-64
2023/05/29 09:42:13;;;;;;;9.32;3.65;;;17.10;98.20;;;;;;5092312;28;20044;-61
2023/05/29 09:44:44;;;;;;;10.10;3.30;;;17.20;98.00;;;;;;5091927;28;20048;-65
2023/05/29 09:47:17;;;;;;;12.02;3.20;;;17.20;97.90;;;;;;5096073;28;20055;-64
2023/05/29 09:49:46;;;;;;;12.80;3.95;;;17.10;97.70;;;;;;5095022;28;20464;-64
2023/05/29 09:52:16;;;;;;;9.32;3.55;;;17.20;97.80;;;;;;5095810;28;20059;-64
2023/05/29 09:54:45;;;;;;;9.98;2.70;;;17.20;97.80;;;;;;5095708;28;20195;-61
2023/05/29 09:57:16;;;;;;;16.60;3.40;;;17.20;98.20;;;;;;5086355;28;20055;-61
2023/05/29 09:59:50;;;;;;;12.07;3.45;;;17.40;98.20;;;;;;5084847;28;20040;-61
2023/05/29 10:02:18;;;;;;;12.50;3.20;;;17.50;98.10;;;;;;5085418;28;20048;-61
2023/05/29 10:04:44;;;;;;;10.50;3.28;;;17.30;97.90;;;;;;5084032;28;20064;-61
2023/05/29 10:07:28;;;;;;;12.13;3.13;;;17.20;98.40;;;;;;5095630;28;20052;-61
2023/05/29 10:10:04;;;;;;;10.60;3.03;;;17.20;98.30;;;;;;5095441;28;20040;-62
2023/05/29 10:12:34;;;;;;;13.90;3.38;;;17.30;98.40;;;;;;5095850;28;20056;-61
2023/05/29 10:15:02;;;;;;;9.30;3.45;;;17.30;98.30;;;;;;5095586;28;20040;-61
2023/05/29 10:17:36;;;;;;;12.80;3.38;;;17.50;98.20;;;;;;5082333;28;20044;-64
2023/05/29 10:20:06;;;;;;;12.05;3.10;;;17.50;98.00;;;;;;5082952;28;20371;-61
2023/05/29 10:22:36;;;;;;;9.90;2.95;;;17.70;97.90;;;;;;5084624;28;20036;-63
2023/05/29 10:25:03;;;;;;;10.38;2.85;;;17.70;97.20;;;;;;5085814;28;20379;-61
2023/05/29 10:27:29;;;;;;;9.40;3.40;;;17.60;97.50;;;;;;5086724;28;20101;-63
2023/05/29 10:30:05;;;;;;;10.65;3.25;;;17.70;97.40;;;;;;5088158;28;20114;-63
2023/05/29 10:33:01;;;;;;;10.25;3.35;;;17.90;96.90;;;;;;5083543;28;20125;-63
2023/05/29 10:35:42;;;;;;;12.43;3.45;;;17.90;96.70;;;;;;5082490;28;20048;-62
2023/05/29 10:38:16;;;;;;;10.93;3.30;;;17.80;96.50;;;;;;5074324;28;20040;-63
2023/05/29 10:40:43;;;;;;;8.57;3.25;;;17.80;96.90;;;;;;5089292;28;20367;-63
2023/05/29 10:43:29;;;;;;;10.55;3.17;;;17.80;96.80;;;;;;5084977;28;20036;-64
2023/05/29 10:45:55;;;;;;;8.73;3.00;;;17.80;96.80;;;;;;5083362;28;20044;-64
2023/05/29 10:48:28;;;;;;;10.60;3.40;;;17.80;97.00;;;;;;5084331;28;20055;-63
2023/05/29 10:50:55;;;;;;;10.65;2.83;;;17.70;97.20;;;;;;5091973;28;20460;-62
2023/05/29 10:53:30;;;;;;;11.02;2.97;;;17.90;97.30;;;;;;5090804;28;20392;-63
2023/05/29 10:55:58;;;;;;;10.82;3.85;;;18.00;97.30;;;;;;5083147;28;20445;-62
2023/05/29 10:58:25;;;;;;;12.75;3.88;;;18.10;97.10;;;;;;5081771;28;20059;-64
2023/05/29 11:00:56;;;;;;;9.13;3.55;;;18.40;97.10;;;;;;5078352;28;20055;-63
2023/05/29 11:03:25;;;;;;;11.07;3.20;;;18.40;96.80;;;;;;5082046;28;20044;-64
2023/05/29 11:06:17;;;;;;;15.65;3.38;;;18.30;96.60;;;;;;5084277;28;20044;-62
2023/05/29 11:08:47;;;;;;;10.23;3.97;;;18.20;96.30;;;;;;5083569;28;20041;-62
2023/05/29 11:11:31;;;;;;;11.10;2.60;;;18.40;96.80;;;;;;5092755;28;20466;-63
2023/05/29 11:14:02;;;;;;;13.23;3.80;;;18.40;96.90;;;;;;5094327;28;20056;-62
2023/05/29 11:16:38;;;;;;;;;;;18.20;96.70;;;;;;5094756;28;20040;-64
2023/05/29 11:19:11;;;;;;;10.85;3.03;;;18.20;96.70;;;;;;5093833;28;19930;-64
2023/05/29 11:21:46;;;;;;;10.77;2.88;;;18.40;97.10;;;;;;5074052;28;20052;-63
2023/05/29 11:24:23;;;;;;;11.25;3.38;;;18.40;96.70;;;;;;5073893;28;20048;-63
2023/05/29 11:26:52;;;;;;;12.63;3.10;;;18.40;96.70;;;;;;5073779;28;20071;-63
2023/05/29 11:29:28;;;;;;;9.93;2.90;;;18.40;96.60;;;;;;5075549;28;20060;-63
2023/05/29 11:32:09;;;;;;;11.23;3.30;;;18.50;96.60;;;;;;5093960;28;20063;-62
2023/05/29 11:34:40;;;;;;;13.73;3.25;;;18.50;96.50;;;;;;5093847;28;20456;-63
2023/05/29 11:37:06;;;;;;;11.90;2.85;;;18.50;96.90;;;;;;5091215;28;20051;-63
2023/05/29 11:39:36;;;;;;;9.55;2.92;;;18.60;96.90;;;;;;5085372;28;20051;-63
2023/05/29 11:42:03;;;;;;;11.38;3.17;;;18.60;96.40;;;;;;5083434;28;20054;-64
2023/05/29 11:44:29;;;;;;;12.60;3.25;;;18.70;96.10;;;;;;5082168;28;20350;-63
2023/05/29 11:47:06;;;;;;;10.95;3.50;;;18.80;96.40;;;;;;5078604;28;20152;-62
2023/05/29 11:49:35;;;;;;;11.75;3.20;;;18.50;96.40;;;;;;5077291;28;20044;-63
2023/05/29 11:52:12;;;;;;;13.75;2.83;;;18.50;96.50;;;;;;5093636;28;20402;-62
2023/05/29 11:54:38;;;;;;;12.32;3.58;;;18.70;95.50;;;;;;5093562;28;20100;-63
2023/05/29 11:57:05;;;;;;;12.25;3.67;;;18.70;96.00;;;;;;5092911;28;20432;-63
2023/05/29 11:59:33;;;;;;;15.32;3.55;;;18.50;96.30;;;;;;5092756;28;20040;-64
2023/05/29 12:02:02;;;;;;;10.65;2.80;;;18.70;96.20;;;;;;5093531;28;20044;-64
2023/05/29 12:04:29;;;;;;;13.20;3.42;;;18.70;96.30;;;;;;5093341;28;20330;-63
2023/05/29 12:06:55;;;;;;;8.55;3.05;;;18.70;96.30;;;;;;5093193;28;20506;-63
2023/05/29 12:09:26;;;;;;;10.85;3.10;;;19.10;96.30;;;;;;5091815;28;20052;-64
2023/05/29 12:12:02;;;;;;;11.13;3.10;;;19.00;95.40;;;;;;5092866;28;20059;-63
2023/05/29 12:14:29;;;;;;;9.73;3.28;;;19.10;95.80;;;;;;5093389;28;20048;-64
2023/05/29 12:16:55;;;;;;;11.63;3.70;;;19.10;95.80;;;;;;5092751;28;20460;-63
2023/05/29 12:19:22;;;;;;;11.30;3.40;;;19.00;95.60;;;;;;5092172;28;20048;-64
2023/05/29 12:21:48;;;;;;;10.25;3.00;;;18.80;95.80;;;;;;5082724;28;20052;-62
2023/05/29 12:24:17;;;;;;;11.27;3.33;;;18.80;96.20;;;;;;5072555;28;20044;-63
2023/05/29 12:26:43;;;;;;;10.00;2.63;;;18.90;96.00;;;;;;5072543;28;20048;-63
2023/05/29 12:29:09;;;;;;;7.88;2.80;;;18.80;95.70;;;;;;5072614;28;20275;-63
2023/05/29 12:31:36;;;;;;;8.85;3.25;;;18.70;95.80;;;;;;5092968;28;20047;-63
2023/05/29 12:34:08;;;;;;;9.98;3.10;;;18.80;96.00;;;;;;5092967;28;20055;-64
2023/05/29 12:36:34;;;;;;;11.27;3.42;;;18.80;95.60;;;;;;5092471;28;20593;-62
2023/05/29 12:39:08;;;;;;;7.15;2.65;;;18.80;95.80;;;;;;5091985;28;20357;-63
2023/05/29 12:41:35;;;;;;;7.47;2.90;;;18.70;95.80;;;;;;5092445;28;20040;-64
2023/05/29 12:44:03;;;;;;;12.18;2.88;;;18.80;96.10;;;;;;5086342;28;20125;-64
2023/05/29 12:46:37;;;;;;;11.13;3.00;;;18.80;96.00;;;;;;5074532;28;20045;-65
2023/05/29 12:49:17;;;;;;;9.55;3.10;;;18.90;96.10;;;;;;5071523;28;20441;-65